createdAt,value
2023-05-10T00:02:20.760Z,98705.13
2023-05-10T00:05:24.003Z,98703.06
2023-05-10T00:08:26.965Z,98712.00
2023-05-10T00:11:29.897Z,98702.78
2023-05-10T00:14:32.815Z,98699.28
2023-05-10T00:17:36.073Z,98700.00
2023-05-10T00:20:38.699Z,98697.47
2023-05-10T00:23:41.560Z,98688.59
2023-05-10T00:26:44.225Z,98694.56
2023-05-10T00:29:47.508Z,98700.47
2023-05-10T00:32:50.955Z,98699.31
2023-05-10T00:35:53.993Z,98693.75
2023-05-10T00:38:56.964Z,98690.87
2023-05-10T00:42:01.191Z,98682.84
2023-05-10T00:45:04.383Z,98689.97
2023-05-10T00:48:07.440Z,98688.22
2023-05-10T00:51:10.345Z,98686.41
2023-05-10T00:54:16.262Z,98687.28
2023-05-10T00:57:19.030Z,98675.34
2023-05-10T01:00:22.699Z,98679.91
2023-05-10T01:03:26.439Z,98682.25
2023-05-10T01:06:29.737Z,98677.53
2023-05-10T01:09:33.467Z,98680.47
2023-05-10T01:12:38.917Z,98678.09
2023-05-10T01:15:42.100Z,98680.09
2023-05-10T01:18:45.709Z,98676.56
2023-05-10T01:21:57.496Z,98678.44
2023-05-10T01:25:12.908Z,98682.13
2023-05-10T01:28:38.085Z,98676.75
2023-05-10T01:32:02.905Z,98674.72
2023-05-10T01:35:31.782Z,98669.03
2023-05-10T01:38:51.240Z,98665.91
2023-05-10T01:41:58.459Z,98664.53
2023-05-10T01:45:08.109Z,98668.13
2023-05-10T01:48:15.814Z,98668.78
2023-05-10T01:51:24.290Z,98660.22
2023-05-10T01:54:28.329Z,98650.31
2023-05-10T01:57:34.739Z,98657.31
2023-05-10T02:00:38.324Z,98659.22
2023-05-10T02:03:42.242Z,98654.03
2023-05-10T02:06:46.425Z,98663.38
2023-05-10T02:09:49.612Z,98658.09
2023-05-10T02:12:53.208Z,98664.00
2023-05-10T02:15:56.701Z,98658.84
2023-05-10T02:19:00.502Z,98657.50
2023-05-10T02:22:04.174Z,98652.53
2023-05-10T02:25:10.208Z,98647.44
2023-05-10T02:28:13.598Z,98652.81
2023-05-10T02:31:16.815Z,98639.28
2023-05-10T02:34:20.631Z,98657.88
2023-05-10T02:37:23.798Z,98648.22
2023-05-10T02:40:28.763Z,98655.56
2023-05-10T02:43:33.655Z,98653.84
2023-05-10T02:46:38.250Z,98656.69
2023-05-10T02:49:41.406Z,98656.03
2023-05-10T02:52:48.119Z,98658.13
2023-05-10T02:55:53.533Z,98658.22
2023-05-10T02:58:56.516Z,98634.63
2023-05-10T03:02:01.384Z,98655.75
2023-05-10T03:05:04.552Z,98657.88
2023-05-10T03:08:07.879Z,98654.38
2023-05-10T03:11:23.628Z,98664.28
2023-05-10T03:14:41.422Z,98663.34
2023-05-10T03:17:47.770Z,98657.09
2023-05-10T03:20:56.998Z,98658.78
2023-05-10T03:24:09.504Z,98658.03
2023-05-10T03:27:13.019Z,98655.97
2023-05-10T03:30:16.024Z,98653.44
2023-05-10T03:33:19.655Z,98653.47
2023-05-10T03:36:22.578Z,98644.47
2023-05-10T03:39:26.222Z,98647.53
2023-05-10T03:42:29.291Z,98629.03
2023-05-10T03:45:32.429Z,98648.28
2023-05-10T03:48:35.865Z,98638.31
2023-05-10T03:51:38.873Z,98642.94
2023-05-10T03:54:41.871Z,98648.19
2023-05-10T03:57:45.066Z,98634.03
2023-05-10T04:00:48.193Z,98647.28
2023-05-10T04:03:51.556Z,98644.72
2023-05-10T04:06:54.387Z,98645.59
2023-05-10T04:09:57.496Z,98654.72
2023-05-10T04:13:00.025Z,98644.09
2023-05-10T04:16:03.513Z,98656.41
2023-05-10T04:19:06.072Z,98652.91
2023-05-10T04:22:09.479Z,98648.62
2023-05-10T04:25:12.565Z,98647.50
2023-05-10T04:28:15.738Z,98650.97
2023-05-10T04:31:18.318Z,98643.69
2023-05-10T04:34:22.224Z,98642.53
2023-05-10T04:37:24.771Z,98648.69
2023-05-10T04:40:27.538Z,98662.25
2023-05-10T04:43:30.034Z,98660.22
2023-05-10T04:46:32.805Z,98656.44
2023-05-10T04:49:35.296Z,98657.06
2023-05-10T04:52:38.183Z,98645.28
2023-05-10T04:55:40.707Z,98655.88
2023-05-10T04:58:43.568Z,98655.66
2023-05-10T05:01:46.128Z,98653.59
2023-05-10T05:04:48.992Z,98652.25
2023-05-10T05:07:51.663Z,98657.31
2023-05-10T05:10:55.401Z,98653.31
2023-05-10T05:14:00.122Z,98653.47
2023-05-10T05:17:03.041Z,98652.72
2023-05-10T05:20:06.476Z,98659.81
2023-05-10T05:23:09.320Z,98656.28
2023-05-10T05:26:11.904Z,98658.13
2023-05-10T05:29:14.664Z,98663.31
2023-05-10T05:32:17.210Z,98671.25
2023-05-10T05:35:20.028Z,98668.50
2023-05-10T05:38:22.573Z,98672.59
2023-05-10T05:41:25.613Z,98669.53
2023-05-10T05:44:29.834Z,98673.50
2023-05-10T05:47:32.766Z,98675.78
2023-05-10T05:50:35.317Z,98678.66
2023-05-10T05:53:38.177Z,98682.31
2023-05-10T05:56:40.737Z,98684.19
2023-05-10T05:59:44.933Z,98684.22
2023-05-10T06:02:47.598Z,98677.09
2023-05-10T06:05:50.514Z,98680.66
2023-05-10T06:08:53.026Z,98687.97
2023-05-10T06:11:55.793Z,98690.78
2023-05-10T06:14:58.511Z,98687.81
2023-05-10T06:18:01.460Z,98689.50
2023-05-10T06:21:04.102Z,98688.47
2023-05-10T06:24:07.726Z,98680.66
2023-05-10T06:27:10.247Z,98695.28
2023-05-10T06:30:14.423Z,98693.34
2023-05-10T06:33:17.072Z,98689.06
2023-05-10T06:36:19.938Z,98698.81
2023-05-10T06:39:22.501Z,98697.59
2023-05-10T06:42:26.469Z,98701.97
2023-05-10T06:45:29.017Z,98700.31
2023-05-10T06:48:31.994Z,98698.28
2023-05-10T06:51:34.892Z,98691.16
2023-05-10T06:54:58.726Z,98707.13
2023-05-10T06:58:01.228Z,98701.53
2023-05-10T07:01:05.236Z,98699.47
2023-05-10T07:04:08.578Z,98705.34
2023-05-10T07:07:11.359Z,98711.88
2023-05-10T07:10:14.374Z,98711.88
2023-05-10T07:13:17.249Z,98714.13
2023-05-10T07:16:19.934Z,98717.12
2023-05-10T07:19:22.940Z,98717.12
2023-05-10T07:22:25.782Z,98719.28
2023-05-10T07:25:28.706Z,98718.88
2023-05-10T07:28:31.200Z,98714.81
2023-05-10T07:31:34.361Z,98710.97
2023-05-10T07:34:36.945Z,98717.94
2023-05-10T07:37:39.705Z,98707.94
2023-05-10T07:40:42.237Z,98714.63
2023-05-10T07:43:45.247Z,98712.63
2023-05-10T07:46:48.726Z,98711.34
2023-05-10T07:49:51.477Z,98717.38
2023-05-10T07:52:54.059Z,98705.28
2023-05-10T07:56:00.064Z,98704.75
2023-05-10T07:59:05.035Z,98705.19
2023-05-10T08:02:07.932Z,98687.16
2023-05-10T08:05:10.824Z,98696.78
2023-05-10T08:08:13.292Z,98695.97
2023-05-10T08:11:19.238Z,98697.75
2023-05-10T08:14:21.862Z,98703.69
2023-05-10T08:17:24.922Z,98707.63
2023-05-10T08:20:27.573Z,98704.41
2023-05-10T08:23:30.422Z,98705.91
2023-05-10T08:26:33.553Z,98695.28
2023-05-10T08:29:49.056Z,98698.81
2023-05-10T08:32:52.421Z,98700.59
2023-05-10T08:35:55.358Z,98702.88
2023-05-10T08:38:57.785Z,98708.41
2023-05-10T08:42:04.352Z,98708.38
2023-05-10T08:45:08.610Z,98712.31
2023-05-10T08:48:11.921Z,98708.78
2023-05-10T08:51:17.446Z,98697.69
2023-05-10T08:54:20.265Z,98697.41
2023-05-10T08:57:22.841Z,98703.00
2023-05-10T09:00:25.794Z,98699.47
2023-05-10T09:03:28.397Z,98695.41
2023-05-10T09:06:31.350Z,98686.59
2023-05-10T09:09:34.587Z,98694.41
2023-05-10T09:12:37.508Z,98701.72
2023-05-10T09:15:40.212Z,98703.56
2023-05-10T09:18:42.958Z,98696.09
2023-05-10T09:21:45.920Z,98694.25
2023-05-10T09:24:48.682Z,98697.06
2023-05-10T09:27:51.299Z,98692.31
2023-05-10T09:30:55.411Z,98697.91
2023-05-10T09:33:58.264Z,98697.16
2023-05-10T09:37:02.683Z,98698.84
2023-05-10T09:40:09.830Z,98701.56
2023-05-10T09:43:12.763Z,98683.22
2023-05-10T09:46:16.876Z,98690.41
2023-05-10T09:49:21.356Z,98681.81
2023-05-10T09:52:23.839Z,98682.22
2023-05-10T09:55:45.877Z,98681.09
2023-05-10T09:59:03.336Z,98680.22
2023-05-10T10:02:06.306Z,98670.31
2023-05-10T10:05:09.690Z,98678.12
2023-05-10T10:08:13.728Z,98691.41
2023-05-10T10:11:16.551Z,98675.25
2023-05-10T10:14:23.717Z,98676.94
2023-05-10T10:17:29.087Z,98674.78
2023-05-10T10:20:31.588Z,98658.09
2023-05-10T10:23:34.400Z,98659.50
2023-05-10T10:26:39.675Z,98650.84
2023-05-10T10:29:51.456Z,98653.19
2023-05-10T10:33:29.378Z,98653.50
2023-05-10T10:36:34.243Z,98646.88
2023-05-10T10:39:37.827Z,98642.94
2023-05-10T10:42:50.918Z,98645.72
2023-05-10T10:46:26.021Z,98643.59
2023-05-10T10:49:28.974Z,98658.09
2023-05-10T10:52:53.064Z,98644.87
2023-05-10T10:56:10.619Z,98640.06
2023-05-10T10:59:13.259Z,98617.34
2023-05-10T11:02:55.550Z,98635.22
2023-05-10T11:06:02.786Z,98638.19
2023-05-10T11:09:09.620Z,98626.75
2023-05-10T11:12:12.196Z,98626.34
2023-05-10T11:15:15.240Z,98626.34
2023-05-10T11:18:17.823Z,98632.50
2023-05-10T11:21:20.824Z,98625.03
2023-05-10T11:24:24.580Z,98619.66
2023-05-10T11:27:27.449Z,98616.88
2023-05-10T11:30:30.128Z,98611.91
2023-05-10T11:33:46.073Z,98609.56
2023-05-10T11:36:52.534Z,98605.50
2023-05-10T11:39:55.936Z,98605.34
2023-05-10T11:42:58.549Z,98605.69
2023-05-10T11:46:01.400Z,98598.47
2023-05-10T11:49:05.322Z,98596.75
2023-05-10T11:52:09.287Z,98582.97
2023-05-10T11:55:11.791Z,98598.00
2023-05-10T11:58:14.530Z,98601.69
2023-05-10T12:01:17.090Z,98593.16
2023-05-10T12:04:20.308Z,98605.91
2023-05-10T12:07:23.089Z,98603.63
2023-05-10T12:10:27.801Z,98605.53
2023-05-10T12:13:30.484Z,98612.53
2023-05-10T12:16:33.633Z,98587.38
2023-05-10T12:19:39.642Z,98586.13
2023-05-10T12:22:45.751Z,98600.97
2023-05-10T12:25:48.287Z,98598.06
2023-05-10T12:28:51.190Z,98589.28
2023-05-10T12:31:55.583Z,98590.25
2023-05-10T12:34:58.771Z,98596.78
2023-05-10T12:38:01.500Z,98585.81
2023-05-10T12:41:05.973Z,98579.41
2023-05-10T12:44:08.481Z,98575.69
2023-05-10T12:47:11.858Z,98578.88
2023-05-10T12:50:14.465Z,98574.06
2023-05-10T12:53:17.724Z,98578.88
2023-05-10T12:56:20.190Z,98573.19
2023-05-10T12:59:23.850Z,98566.78
2023-05-10T13:02:26.478Z,98564.94
2023-05-10T13:05:29.294Z,98553.69
2023-05-10T13:08:34.562Z,98560.13
2023-05-10T13:11:37.816Z,98560.97
2023-05-10T13:14:41.617Z,98548.88
2023-05-10T13:17:44.575Z,98538.53
2023-05-10T13:20:47.050Z,98543.13
2023-05-10T13:23:49.814Z,98549.94
2023-05-10T13:26:52.348Z,98539.66
2023-05-10T13:29:55.932Z,98528.97
2023-05-10T13:32:58.565Z,98525.84
2023-05-10T13:36:01.337Z,98528.28
2023-05-10T13:39:06.240Z,98530.56
2023-05-10T13:42:09.105Z,98523.59
2023-05-10T13:45:13.222Z,98521.91
2023-05-10T13:48:16.738Z,98507.25
2023-05-10T13:51:19.244Z,98508.47
2023-05-10T13:54:23.171Z,98500.69
2023-05-10T13:57:25.744Z,98503.84
2023-05-10T14:00:28.946Z,98495.81
2023-05-10T14:03:32.060Z,98506.63
2023-05-10T14:06:34.959Z,98514.81
2023-05-10T14:09:37.725Z,98502.88
2023-05-10T14:12:40.284Z,98508.13
2023-05-10T14:15:43.137Z,98506.00
2023-05-10T14:18:45.597Z,98504.56
2023-05-10T14:21:48.390Z,98495.75
2023-05-10T14:24:51.181Z,98494.94
2023-05-10T14:27:55.602Z,98507.78
2023-05-10T14:30:58.036Z,98497.84
2023-05-10T14:34:00.903Z,98500.00
2023-05-10T14:37:03.382Z,98494.22
2023-05-10T14:40:07.515Z,98494.03
2023-05-10T14:43:10.237Z,98488.69
2023-05-10T14:46:13.109Z,98483.97
2023-05-10T14:49:15.670Z,98487.53
2023-05-10T14:52:18.494Z,98487.25
2023-05-10T14:55:21.283Z,98489.38
2023-05-10T14:58:23.979Z,98484.53
2023-05-10T15:01:26.618Z,98488.88
2023-05-10T15:04:29.929Z,98500.44
2023-05-10T15:07:32.886Z,98492.59
2023-05-10T15:10:36.072Z,98489.78
2023-05-10T15:13:38.490Z,98487.19
2023-05-10T15:16:41.451Z,98491.87
2023-05-10T15:19:44.029Z,98485.03
2023-05-10T15:22:46.898Z,98501.91
2023-05-10T15:25:50.803Z,98481.09
2023-05-10T15:28:53.655Z,98477.31
2023-05-10T15:31:56.235Z,98476.06
2023-05-10T15:34:59.293Z,98475.75
2023-05-10T15:38:01.905Z,98475.31
2023-05-10T15:41:04.951Z,98473.34
2023-05-10T15:44:07.561Z,98474.09
2023-05-10T15:47:10.546Z,98466.38
2023-05-10T15:50:13.045Z,98464.84
2023-05-10T15:53:15.784Z,98473.88
2023-05-10T15:56:18.423Z,98464.31
2023-05-10T15:59:21.264Z,98468.00
2023-05-10T16:02:24.001Z,98465.62
2023-05-10T16:05:29.973Z,98468.00
2023-05-10T16:08:33.734Z,98464.72
2023-05-10T16:11:36.719Z,98463.41
2023-05-10T16:14:39.192Z,98468.66
2023-05-10T16:17:42.018Z,98468.19
2023-05-10T16:20:44.892Z,98471.19
2023-05-10T16:23:47.847Z,98474.63
2023-05-10T16:26:50.400Z,98466.91
2023-05-10T16:29:53.306Z,98469.75
2023-05-10T16:32:59.993Z,98473.56
2023-05-10T16:36:02.977Z,98469.66
2023-05-10T16:39:05.482Z,98473.66
2023-05-10T16:42:08.288Z,98468.75
2023-05-10T16:45:11.305Z,98473.00
2023-05-10T16:48:14.117Z,98479.88
2023-05-10T16:51:16.550Z,98480.97
2023-05-10T16:54:20.270Z,98478.34
2023-05-10T16:57:22.819Z,98475.19
2023-05-10T17:00:29.124Z,98480.53
2023-05-10T17:03:31.662Z,98473.62
2023-05-10T17:06:35.896Z,98486.53
2023-05-10T17:09:38.326Z,98483.25
2023-05-10T17:12:41.173Z,98490.03
2023-05-10T17:15:45.834Z,98484.31
2023-05-10T17:18:48.586Z,98484.50
2023-05-10T17:21:51.090Z,98491.84
2023-05-10T17:24:53.856Z,98490.09
2023-05-10T17:27:56.393Z,98502.81
2023-05-10T17:30:59.543Z,98491.28
2023-05-10T17:34:04.722Z,98489.97
2023-05-10T17:37:09.338Z,98497.22
2023-05-10T17:40:12.275Z,98476.09
2023-05-10T17:43:15.093Z,98501.38
2023-05-10T17:46:17.998Z,98501.16
2023-05-10T17:49:21.065Z,98501.44
2023-05-10T17:52:23.570Z,98499.69
2023-05-10T17:55:27.132Z,98500.31
2023-05-10T17:58:30.344Z,98507.75
2023-05-10T18:01:33.330Z,98507.94
2023-05-10T18:04:37.201Z,98502.53
2023-05-10T18:07:40.061Z,98509.06
2023-05-10T18:10:42.853Z,98501.94
2023-05-10T18:13:45.225Z,98509.28
2023-05-10T18:16:48.290Z,98521.16
2023-05-10T18:19:51.068Z,98520.56
2023-05-10T18:22:55.425Z,98520.03
2023-05-10T18:25:58.093Z,98516.63
2023-05-10T18:29:01.722Z,98521.28
2023-05-10T18:32:04.583Z,98525.81
2023-05-10T18:35:07.950Z,98532.97
2023-05-10T18:38:10.502Z,98530.63
2023-05-10T18:41:14.570Z,98532.63
2023-05-10T18:44:17.067Z,98538.41
2023-05-10T18:47:20.130Z,98535.06
2023-05-10T18:50:23.164Z,98528.09
2023-05-10T18:53:27.064Z,98538.37
2023-05-10T18:56:29.876Z,98542.16
2023-05-10T18:59:32.994Z,98539.59
2023-05-10T19:02:41.049Z,98545.25
2023-05-10T19:05:44.876Z,98545.34
2023-05-10T19:08:48.013Z,98545.34
2023-05-10T19:11:51.521Z,98543.00
2023-05-10T19:14:54.056Z,98551.09
2023-05-10T19:17:58.171Z,98552.06
2023-05-10T19:21:04.744Z,98551.34
2023-05-10T19:24:07.872Z,98542.88
2023-05-10T19:27:10.796Z,98557.03
2023-05-10T19:30:13.802Z,98555.59
2023-05-10T19:33:19.764Z,98555.53
2023-05-10T19:36:22.992Z,98544.16
2023-05-10T19:39:25.469Z,98548.62
2023-05-10T19:42:28.485Z,98555.06
2023-05-10T19:45:31.048Z,98561.59
2023-05-10T19:48:33.815Z,98557.84
2023-05-10T19:51:39.302Z,98550.84
2023-05-10T19:54:44.527Z,98554.78
2023-05-10T19:57:47.350Z,98552.94
2023-05-10T20:00:50.512Z,98554.94
2023-05-10T20:03:53.935Z,98550.41
2023-05-10T20:06:56.460Z,98552.41
2023-05-10T20:09:59.362Z,98546.22
2023-05-10T20:13:01.858Z,98545.50
2023-05-10T20:16:06.318Z,98544.78
2023-05-10T20:19:09.099Z,98545.00
2023-05-10T20:22:12.040Z,98549.75
2023-05-10T20:25:14.986Z,98549.88
2023-05-10T20:28:23.202Z,98550.22
2023-05-10T20:31:25.731Z,98551.44
2023-05-10T20:34:28.445Z,98548.62
2023-05-10T20:37:31.200Z,98546.31
2023-05-10T20:40:34.142Z,98549.28
2023-05-10T20:43:36.917Z,98545.06
2023-05-10T20:46:39.697Z,98546.78
2023-05-10T20:49:42.729Z,98549.75
2023-05-10T20:52:45.649Z,98545.63
2023-05-10T20:55:48.138Z,98544.91
2023-05-10T20:58:51.025Z,98547.84
2023-05-10T21:01:53.632Z,98545.37
2023-05-10T21:04:57.820Z,98545.63
2023-05-10T21:08:00.672Z,98549.47
2023-05-10T21:11:06.267Z,98539.84
2023-05-10T21:14:09.697Z,98532.81
2023-05-10T21:17:13.421Z,98531.97
2023-05-10T21:20:16.121Z,98544.66
2023-05-10T21:23:19.269Z,98539.47
2023-05-10T21:26:22.171Z,98541.25
2023-05-10T21:29:24.905Z,98541.56
2023-05-10T21:32:27.431Z,98535.38
2023-05-10T21:35:30.728Z,98539.81
2023-05-10T21:38:33.266Z,98548.88
2023-05-10T21:41:36.083Z,98549.88
2023-05-10T21:44:38.721Z,98550.03
2023-05-10T21:47:41.534Z,98552.81
2023-05-10T21:50:44.791Z,98548.59
2023-05-10T21:53:47.954Z,98544.38
2023-05-10T21:56:50.659Z,98546.47
2023-05-10T21:59:53.545Z,98545.25
2023-05-10T22:02:56.168Z,98545.53
2023-05-10T22:05:59.182Z,98552.75
2023-05-10T22:09:01.843Z,98545.03
2023-05-10T22:12:04.922Z,98549.62
2023-05-10T22:15:10.806Z,98551.81
2023-05-10T22:18:13.722Z,98550.44
2023-05-10T22:21:16.544Z,98553.00
2023-05-10T22:24:19.400Z,98557.66
2023-05-10T22:27:22.053Z,98555.03
2023-05-10T22:30:25.056Z,98546.19
2023-05-10T22:33:27.543Z,98550.78
2023-05-10T22:36:30.745Z,98552.81
2023-05-10T22:39:33.332Z,98552.94
2023-05-10T22:42:36.136Z,98552.31
2023-05-10T22:45:38.799Z,98553.03
2023-05-10T22:48:43.334Z,98565.63
2023-05-10T22:51:46.541Z,98557.53
2023-05-10T22:54:49.470Z,98563.00
2023-05-10T22:57:52.227Z,98566.34
2023-05-10T23:00:55.602Z,98562.72
2023-05-10T23:03:58.502Z,98544.84
2023-05-10T23:07:01.259Z,98570.00
2023-05-10T23:10:04.000Z,98560.66
2023-05-10T23:13:07.864Z,98554.28
2023-05-10T23:16:10.602Z,98555.81
2023-05-10T23:19:13.506Z,98553.06
2023-05-10T23:22:16.082Z,98556.31
2023-05-10T23:25:18.830Z,98550.00
2023-05-10T23:28:21.678Z,98556.25
2023-05-10T23:31:24.608Z,98556.19
2023-05-10T23:34:27.363Z,98554.44
2023-05-10T23:37:30.171Z,98547.28
2023-05-10T23:40:32.792Z,98559.03
2023-05-10T23:43:35.842Z,98556.31
2023-05-10T23:46:38.476Z,98565.44
2023-05-10T23:49:42.275Z,98564.34
2023-05-10T23:52:44.801Z,98568.94
2023-05-10T23:55:47.572Z,98563.31
2023-05-10T23:58:50.655Z,98560.56
